createdAt,value
2022-08-01T14:26:03.388Z,5.05
2022-08-01T14:28:34.637Z,5.55
2022-08-01T14:31:10.154Z,4.38
2022-08-01T14:33:44.085Z,4.85
2022-08-01T14:36:30.042Z,4.88
2022-08-01T14:39:14.824Z,3.78
2022-08-01T14:41:45.704Z,4.03
2022-08-01T14:44:20.397Z,3.67
2022-08-01T14:46:57.179Z,2.95
2022-08-01T14:49:32.568Z,3.92
2022-08-01T14:52:04.546Z,4.80
2022-08-01T14:54:37.963Z,3.65
2022-08-01T14:57:11.483Z,2.75
2022-08-01T14:59:41.907Z,3.58
2022-08-01T15:02:18.194Z,3.30
2022-08-01T15:04:50.334Z,3.50
2022-08-01T15:07:21.280Z,3.45
2022-08-01T15:09:52.755Z,6.90
2022-08-01T15:12:35.634Z,8.60
2022-08-01T15:15:21.179Z,7.15
2022-08-01T15:17:52.966Z,6.53
2022-08-01T15:20:27.517Z,6.97
2022-08-01T15:23:06.910Z,6.68
2022-08-01T15:25:44.005Z,7.80
2022-08-01T15:28:12.891Z,6.75
2022-08-01T15:30:46.428Z,7.10
2022-08-01T15:33:18.370Z,5.80
2022-08-01T15:35:54.978Z,6.97
2022-08-01T15:38:25.926Z,6.05
2022-08-01T15:41:03.076Z,7.90
2022-08-01T15:43:37.058Z,6.45
2022-08-01T15:46:17.377Z,8.98
2022-08-01T15:48:49.349Z,6.70
2022-08-01T15:51:20.216Z,8.50
2022-08-01T15:53:53.569Z,6.72
2022-08-01T15:58:56.661Z,8.25
2022-08-01T16:01:28.361Z,6.55
2022-08-01T16:04:04.578Z,5.20
2022-08-01T16:06:38.474Z,6.18
2022-08-01T16:09:10.093Z,4.80
2022-08-01T16:11:51.125Z,5.50
2022-08-01T16:14:25.170Z,5.18
2022-08-01T16:16:57.479Z,5.32
2022-08-01T16:19:31.573Z,6.10
2022-08-01T16:22:03.533Z,6.07
2022-08-01T16:24:36.530Z,6.45
2022-08-01T16:27:11.939Z,4.78
2022-08-01T16:29:41.990Z,5.63
2022-08-01T16:32:19.939Z,6.10
2022-08-01T16:35:08.373Z,4.68
2022-08-01T16:37:41.492Z,6.05
2022-08-01T16:40:16.506Z,5.43
2022-08-01T16:42:46.595Z,5.80
2022-08-01T16:45:21.351Z,5.57
2022-08-01T16:47:55.705Z,5.28
2022-08-01T16:50:30.051Z,5.25
2022-08-01T16:53:00.411Z,6.03
2022-08-01T16:55:49.457Z,4.57
2022-08-01T16:58:27.417Z,4.32
2022-08-01T17:01:59.775Z,5.15
2022-08-01T17:04:07.424Z,3.95
2022-08-01T17:06:42.756Z,3.83
2022-08-01T17:09:13.092Z,3.17
2022-08-01T17:11:43.998Z,4.25
2022-08-01T17:14:11.793Z,4.07
2022-08-01T17:16:45.332Z,4.35
2022-08-01T17:19:18.096Z,5.38
2022-08-01T17:21:51.035Z,3.65
2022-08-01T17:24:22.267Z,5.03
2022-08-01T17:27:01.415Z,5.22
2022-08-01T17:29:43.433Z,6.30
2022-08-01T17:32:17.412Z,4.05
2022-08-01T17:34:48.075Z,4.93
2022-08-01T17:37:20.972Z,4.20
2022-08-01T17:39:51.123Z,4.10
2022-08-01T17:42:28.405Z,4.07
2022-08-01T17:45:03.680Z,5.13
2022-08-01T17:50:18.932Z,4.03
2022-08-01T17:52:49.946Z,3.90
2022-08-01T17:55:53.453Z,5.43
2022-08-01T17:58:18.410Z,5.05
2022-08-01T18:01:14.432Z,5.40
2022-08-01T18:03:47.655Z,5.93
2022-08-01T18:06:19.333Z,4.72
2022-08-01T18:08:56.126Z,3.72
2022-08-01T18:11:37.153Z,3.45
2022-08-01T18:14:14.254Z,5.07
2022-08-01T18:16:46.878Z,3.72
2022-08-01T18:19:18.594Z,3.53
2022-08-01T18:21:54.032Z,4.18
2022-08-01T18:24:26.375Z,4.15
2022-08-01T18:26:58.796Z,4.40
2022-08-01T18:29:48.077Z,3.77
2022-08-01T18:32:23.821Z,4.07
2022-08-01T18:34:56.340Z,3.90
2022-08-01T18:37:35.482Z,3.47
2022-08-01T18:40:20.914Z,2.78
2022-08-01T18:42:55.783Z,3.42
2022-08-01T18:45:30.986Z,3.75
2022-08-01T18:48:02.419Z,3.22
2022-08-01T18:50:35.573Z,3.92
2022-08-01T18:53:10.755Z,4.18
2022-08-01T18:55:39.222Z,4.25
2022-08-01T18:58:11.712Z,4.43
2022-08-01T19:00:40.526Z,3.27
2022-08-01T19:03:16.627Z,3.30
2022-08-01T19:05:53.424Z,3.42
2022-08-01T19:08:29.503Z,3.42
2022-08-01T19:11:02.501Z,3.75
2022-08-01T19:13:38.423Z,2.88
2022-08-01T19:16:09.554Z,3.58
2022-08-01T19:21:23.611Z,3.42
2022-08-01T19:24:12.352Z,3.70
2022-08-01T19:26:54.875Z,3.33
2022-08-01T19:29:35.295Z,3.50
2022-08-01T19:32:21.550Z,3.10
2022-08-01T19:35:03.957Z,3.70
2022-08-01T19:37:37.724Z,3.30
2022-08-01T19:40:26.793Z,3.40
2022-08-01T19:42:59.970Z,4.10
2022-08-01T19:45:33.403Z,3.08
2022-08-01T19:48:07.633Z,2.78
2022-08-01T19:50:46.948Z,3.08
2022-08-01T19:53:17.962Z,2.85
2022-08-01T19:55:47.683Z,2.97
2022-08-01T19:58:27.007Z,2.35
2022-08-01T20:00:58.348Z,2.78
2022-08-01T20:03:33.944Z,3.03
2022-08-01T20:06:03.403Z,2.83
2022-08-01T20:08:39.896Z,2.58
2022-08-01T20:11:14.664Z,4.28
2022-08-01T20:13:45.776Z,2.72
2022-08-01T20:16:18.927Z,5.97
2022-08-01T20:18:51.195Z,4.75
2022-08-01T20:21:26.674Z,2.95
2022-08-01T20:24:03.290Z,2.88
2022-08-01T20:26:34.204Z,3.08
2022-08-01T20:29:08.302Z,2.08
2022-08-01T20:31:43.220Z,3.03
2022-08-01T20:34:17.023Z,3.08
2022-08-01T20:36:54.359Z,2.78
2022-08-01T20:39:30.186Z,3.08
2022-08-01T20:42:07.208Z,2.85
2022-08-01T20:44:40.500Z,4.50
2022-08-01T20:47:09.241Z,4.80
2022-08-01T20:49:40.692Z,3.92
2022-08-01T20:52:16.881Z,3.58
2022-08-01T20:54:48.499Z,4.18
2022-08-01T20:57:25.470Z,2.47
2022-08-01T21:00:07.586Z,3.10
2022-08-01T21:03:04.822Z,3.25
2022-08-01T21:05:55.822Z,3.45
2022-08-01T21:08:43.061Z,3.15
2022-08-01T21:11:27.137Z,4.80
2022-08-01T21:14:03.670Z,2.47
2022-08-01T21:16:45.040Z,3.25
2022-08-01T21:19:23.809Z,2.55
2022-08-01T21:22:09.972Z,4.05
2022-08-01T21:24:58.657Z,3.47
2022-08-01T21:27:33.732Z,3.67
2022-08-01T21:30:09.547Z,3.08
2022-08-01T21:32:42.923Z,3.88
2022-08-01T21:35:16.482Z,4.40
2022-08-01T21:37:53.095Z,3.40
2022-08-01T21:40:25.220Z,4.32
2022-08-01T21:42:59.807Z,3.67
2022-08-01T21:45:33.695Z,5.03
2022-08-01T21:48:04.528Z,3.17
2022-08-01T21:50:44.931Z,1.85
2022-08-01T21:53:50.518Z,2.33
2022-08-01T21:56:32.835Z,2.95
2022-08-01T21:59:16.004Z,3.17
2022-08-01T22:01:54.754Z,3.53
2022-08-01T22:05:23.724Z,2.25
2022-08-01T22:08:21.393Z,2.80
2022-08-01T22:11:00.911Z,3.40
2022-08-01T22:13:34.150Z,3.25
2022-08-01T22:16:04.480Z,3.53
2022-08-01T22:21:11.118Z,2.72
2022-08-01T22:23:47.290Z,3.45
2022-08-01T22:26:18.868Z,4.53
2022-08-01T22:29:01.180Z,4.57
2022-08-01T22:31:33.948Z,2.80
2022-08-01T22:34:12.323Z,2.25
2022-08-01T22:36:51.920Z,3.33
2022-08-01T22:39:26.753Z,2.83
2022-08-01T22:42:03.256Z,4.03
2022-08-01T22:45:08.003Z,2.30
2022-08-01T22:47:41.237Z,2.72
2022-08-01T22:50:36.198Z,2.28
2022-08-01T22:53:28.657Z,2.20
2022-08-01T22:56:10.902Z,3.38
2022-08-01T22:58:53.018Z,3.08
2022-08-01T23:01:31.273Z,3.38
2022-08-01T23:04:08.174Z,3.40
2022-08-01T23:06:38.779Z,2.53
2022-08-01T23:09:08.879Z,2.58
2022-08-01T23:11:44.527Z,2.63
2022-08-01T23:14:20.712Z,2.13
2022-08-01T23:16:55.681Z,3.17
2022-08-01T23:19:27.505Z,2.80
2022-08-01T23:22:00.839Z,2.50
2022-08-01T23:24:37.976Z,3.08
2022-08-01T23:27:25.653Z,2.53
2022-08-01T23:30:15.243Z,1.95
2022-08-01T23:32:48.304Z,3.15
2022-08-01T23:35:28.417Z,2.60
2022-08-01T23:38:02.979Z,2.33
2022-08-01T23:40:34.381Z,3.33
2022-08-01T23:43:06.407Z,3.00
2022-08-01T23:46:03.718Z,2.67
2022-08-01T23:48:38.125Z,2.28
2022-08-01T23:51:11.357Z,2.67
2022-08-01T23:53:50.154Z,2.78
2022-08-01T23:56:27.462Z,2.67
2022-08-01T23:59:00.467Z,2.00
